Time;durP1;ratioP1;P1;durP2;ratioP2;P2;SDS_P1;SDS_P2;PMS_P1;PMS_P2;Temp;Humidity;BMP_temperature;BMP_pressure;BME280_temperature;BME280_humidity;BME280_pressure;Samples;Min_cycle;Max_cycle;Signal;HPM_P1;HPM_P2
2023/09/20 00:00:12;;;;;;;2.10;1.00;;;13.40;99.90;;;;;;2584054;54;21251;31
2023/09/20 00:02:50;;;;;;;2.78;1.13;;;13.30;99.90;;;;;;2604040;46;20887;31
2023/09/20 00:05:30;;;;;;;2.00;1.10;;;13.30;99.90;;;;;;2584931;54;20050;31
2023/09/20 00:08:05;;;;;;;1.45;0.75;;;13.20;99.90;;;;;;2586105;54;20053;31
2023/09/20 00:10:40;;;;;;;1.92;0.90;;;13.20;99.90;;;;;;2604400;46;20756;31
2023/09/20 00:13:18;;;;;;;3.25;1.15;;;13.20;99.90;;;;;;2585935;54;20878;31
2023/09/20 00:15:56;;;;;;;2.45;1.10;;;13.20;99.90;;;;;;2604224;46;20053;31
2023/09/20 00:18:30;;;;;;;3.20;0.90;;;13.10;99.90;;;;;;2585777;54;20030;31
2023/09/20 00:21:04;;;;;;;2.25;0.75;;;13.10;99.90;;;;;;2585475;54;20108;31
2023/09/20 00:23:40;;;;;;;2.60;1.13;;;13.10;99.90;;;;;;2585665;54;21575;31
2023/09/20 00:26:17;;;;;;;3.80;1.38;;;13.00;99.90;;;;;;2584825;54;21335;31
2023/09/20 00:29:04;;;;;;;3.80;1.20;;;13.00;99.90;;;;;;2584086;54;20018;31
2023/09/20 00:31:40;;;;;;;5.53;1.43;;;13.00;99.90;;;;;;2585904;54;20753;31
2023/09/20 00:34:17;;;;;;;2.65;0.90;;;13.00;99.90;;;;;;2585693;54;20030;31
2023/09/20 00:36:53;;;;;;;3.13;1.50;;;12.90;99.90;;;;;;2596273;46;20784;31
2023/09/20 00:39:26;;;;;;;5.80;1.00;;;12.90;99.90;;;;;;2585735;54;20022;31
2023/09/20 00:42:07;;;;;;;3.00;1.25;;;12.80;99.90;;;;;;2586021;54;20247;31
2023/09/20 00:44:44;;;;;;;3.10;1.13;;;12.80;99.90;;;;;;2584858;54;20785;31
2023/09/20 00:47:22;;;;;;;2.85;1.00;;;12.80;99.90;;;;;;2585017;54;21768;31
2023/09/20 00:50:02;;;;;;;2.35;1.10;;;12.70;99.90;;;;;;2585849;54;20033;31
2023/09/20 00:52:39;;;;;;;3.78;1.60;;;12.70;99.90;;;;;;2586006;54;20843;31
2023/09/20 00:55:20;;;;;;;1.75;1.00;;;12.70;99.90;;;;;;2585542;54;20097;31
2023/09/20 00:57:59;;;;;;;5.47;1.13;;;12.70;99.90;;;;;;2586511;54;19941;31
2023/09/20 01:00:40;;;;;;;3.10;1.05;;;12.60;99.90;;;;;;2586703;54;20906;31
2023/09/20 01:03:22;;;;;;;1.63;0.80;;;12.60;99.90;;;;;;2586598;54;20892;31
2023/09/20 01:05:57;;;;;;;2.25;1.20;;;12.60;99.90;;;;;;2586431;54;20963;31
2023/09/20 01:08:34;;;;;;;4.18;1.30;;;12.50;99.90;;;;;;2586536;54;20026;31
2023/09/20 01:11:10;;;;;;;3.80;1.20;;;12.50;99.90;;;;;;2586573;54;20758;31
2023/09/20 01:13:43;;;;;;;;;;;12.50;99.90;;;;;;2585738;54;20034;31
2023/09/20 01:16:23;;;;;;;1.80;1.00;;;12.40;99.90;;;;;;2604257;46;20755;31
2023/09/20 01:18:58;;;;;;;3.05;1.27;;;12.40;99.90;;;;;;2586389;54;20779;31
2023/09/20 01:21:34;;;;;;;2.47;1.20;;;12.40;99.90;;;;;;2585724;54;20884;31
2023/09/20 01:24:12;;;;;;;2.10;1.15;;;12.30;99.90;;;;;;2701257;39;21765;31
2023/09/20 01:26:46;;;;;;;3.20;1.20;;;12.30;99.90;;;;;;2684007;39;20406;31
2023/09/20 01:29:18;;;;;;;3.78;1.40;;;12.30;99.90;;;;;;2586359;54;20774;31
2023/09/20 01:31:52;;;;;;;2.83;1.33;;;12.30;99.90;;;;;;2605162;46;20146;31
2023/09/20 01:34:27;;;;;;;3.10;1.20;;;12.20;99.90;;;;;;2586462;54;20309;31
2023/09/20 01:37:04;;;;;;;;;;;12.20;99.90;;;;;;2586627;54;20795;31
2023/09/20 01:39:45;;;;;;;2.30;1.00;;;12.10;99.90;;;;;;2604720;46;19957;31
2023/09/20 01:44:56;;;;;;;3.60;1.30;;;12.10;99.90;;;;;;2586520;54;20038;31
2023/09/20 01:47:37;;;;;;;2.80;1.50;;;12.10;99.90;;;;;;2586387;54;20026;31
2023/09/20 01:50:13;;;;;;;3.47;1.20;;;12.10;99.90;;;;;;2586524;54;21580;31
2023/09/20 01:52:49;;;;;;;4.65;2.00;;;12.10;99.90;;;;;;2755303;31;21602;31
2023/09/20 01:55:29;;;;;;;2.35;1.30;;;12.10;99.90;;;;;;2604750;46;20058;31
2023/09/20 01:58:06;;;;;;;4.03;1.98;;;12.10;99.90;;;;;;2586245;54;20744;31
2023/09/20 02:00:40;;;;;;;3.45;1.48;;;12.00;99.90;;;;;;2586161;54;20033;31
2023/09/20 02:03:16;;;;;;;3.03;1.50;;;12.00;99.90;;;;;;2586347;54;21146;31
2023/09/20 02:05:53;;;;;;;3.40;1.87;;;12.00;99.90;;;;;;2586639;54;20893;31
2023/09/20 02:08:29;;;;;;;3.73;1.47;;;11.90;99.90;;;;;;2604633;46;19946;31
2023/09/20 02:11:08;;;;;;;3.15;1.25;;;11.90;99.90;;;;;;2586459;54;21186;31
2023/09/20 02:13:42;;;;;;;2.75;1.80;;;11.90;99.90;;;;;;2702653;39;20417;31
2023/09/20 02:16:18;;;;;;;5.03;1.75;;;11.90;99.90;;;;;;2586256;54;20751;31
2023/09/20 02:18:56;;;;;;;6.45;1.98;;;11.90;99.90;;;;;;2586363;54;20027;31
2023/09/20 02:21:31;;;;;;;3.35;1.50;;;11.90;99.90;;;;;;2586256;54;20089;31
2023/09/20 02:24:08;;;;;;;4.70;1.55;;;11.90;99.90;;;;;;2586030;54;20818;31
2023/09/20 02:26:48;;;;;;;2.50;1.70;;;11.90;99.90;;;;;;2586292;54;20030;31
2023/09/20 02:29:25;;;;;;;4.25;1.63;;;11.90;99.90;;;;;;2593428;46;20042;31
2023/09/20 02:32:05;;;;;;;4.57;1.30;;;11.90;99.90;;;;;;2585891;54;20034;31
2023/09/20 02:34:42;;;;;;;3.07;1.43;;;11.90;99.90;;;;;;2586198;54;20027;31
2023/09/20 02:37:20;;;;;;;3.30;1.70;;;11.90;99.90;;;;;;2586192;54;20302;31
2023/09/20 02:39:57;;;;;;;4.50;1.85;;;11.80;99.90;;;;;;2585247;54;20081;31
2023/09/20 02:42:36;;;;;;;4.78;1.73;;;11.90;99.90;;;;;;2585668;54;20057;31
2023/09/20 02:45:15;;;;;;;3.83;1.60;;;11.90;99.90;;;;;;2585808;54;20070;31
2023/09/20 02:47:54;;;;;;;3.53;1.73;;;11.90;99.90;;;;;;2604926;46;21198;31
2023/09/20 02:50:28;;;;;;;5.65;2.20;;;11.90;99.90;;;;;;2585248;54;20970;31
2023/09/20 02:53:03;;;;;;;2.60;2.00;;;11.90;99.90;;;;;;2586216;54;20915;31
2023/09/20 02:55:38;;;;;;;6.00;1.85;;;11.80;99.90;;;;;;2604500;46;20221;31
2023/09/20 02:58:22;;;;;;;4.65;1.55;;;11.80;99.90;;;;;;2588971;46;20869;31
2023/09/20 03:00:58;;;;;;;4.40;2.08;;;11.80;99.90;;;;;;2604945;46;20022;31
2023/09/20 03:03:32;;;;;;;2.92;1.98;;;11.80;99.90;;;;;;2585653;54;20109;31
2023/09/20 03:06:13;;;;;;;5.75;2.33;;;11.80;99.90;;;;;;2586326;54;20068;31
2023/09/20 03:08:49;;;;;;;3.27;1.27;;;11.70;99.90;;;;;;2586033;54;20027;31
2023/09/20 03:11:25;;;;;;;8.67;2.20;;;11.70;99.90;;;;;;2586337;54;20045;31
2023/09/20 03:14:12;;;;;;;3.83;1.65;;;11.70;99.90;;;;;;2599744;46;20100;31
2023/09/20 03:16:46;;;;;;;7.25;1.80;;;11.70;99.90;;;;;;2585794;54;20141;31
2023/09/20 03:19:20;;;;;;;4.30;1.80;;;11.70;99.90;;;;;;2603903;46;20030;31
2023/09/20 03:21:56;;;;;;;4.20;1.40;;;11.70;99.90;;;;;;2586209;54;20727;31
2023/09/20 03:24:42;;;;;;;4.35;1.80;;;11.60;99.90;;;;;;2586058;54;20995;31
2023/09/20 03:27:18;;;;;;;5.95;1.45;;;11.60;99.90;;;;;;2586097;54;20173;31
2023/09/20 03:29:58;;;;;;;3.50;1.90;;;11.60;99.90;;;;;;2585308;54;20937;31
2023/09/20 03:32:36;;;;;;;3.35;1.90;;;11.60;99.90;;;;;;2585443;54;20853;31
2023/09/20 03:35:15;;;;;;;3.67;2.08;;;11.60;99.90;;;;;;2683724;39;22335;31
2023/09/20 03:37:53;;;;;;;2.72;1.42;;;11.50;99.90;;;;;;2586105;54;21107;31
2023/09/20 03:40:33;;;;;;;2.88;1.48;;;11.50;99.90;;;;;;2603865;46;20026;31
2023/09/20 03:43:10;;;;;;;2.20;1.10;;;11.50;99.90;;;;;;2586063;54;20157;31
2023/09/20 03:45:58;;;;;;;3.50;1.77;;;11.50;99.90;;;;;;2585041;54;20031;31
2023/09/20 03:48:35;;;;;;;4.00;1.40;;;11.50;99.90;;;;;;2585157;54;20884;31
2023/09/20 03:51:17;;;;;;;3.65;1.70;;;11.50;99.90;;;;;;2604669;46;20273;31
2023/09/20 03:53:56;;;;;;;4.80;1.90;;;11.40;99.90;;;;;;2585776;54;20027;31
2023/09/20 03:56:34;;;;;;;3.75;1.58;;;11.40;99.90;;;;;;2585591;54;20078;31
2023/09/20 03:59:12;;;;;;;6.65;2.25;;;11.40;99.90;;;;;;2585941;54;21067;31
2023/09/20 04:01:48;;;;;;;4.23;2.20;;;11.40;99.90;;;;;;2604294;46;20034;31
2023/09/20 04:04:22;;;;;;;5.15;2.70;;;11.40;99.90;;;;;;2585855;54;21057;31
2023/09/20 04:07:04;;;;;;;4.70;2.70;;;11.40;99.90;;;;;;2585913;54;20056;31
2023/09/20 04:09:39;;;;;;;3.70;1.95;;;11.40;99.90;;;;;;2585815;54;20030;31
2023/09/20 04:12:15;;;;;;;3.60;2.00;;;11.30;99.90;;;;;;2585794;54;20034;31
2023/09/20 04:14:54;;;;;;;4.53;2.77;;;11.30;99.90;;;;;;2585615;54;20287;31
2023/09/20 04:17:32;;;;;;;7.20;2.78;;;11.30;99.90;;;;;;2585701;54;20242;31
2023/09/20 04:20:09;;;;;;;4.47;2.50;;;11.30;99.90;;;;;;2586105;54;20053;31
2023/09/20 04:22:49;;;;;;;3.05;1.95;;;11.30;99.90;;;;;;2604225;46;20923;31
2023/09/20 04:25:28;;;;;;;8.85;2.45;;;11.30;99.90;;;;;;2586175;54;20045;31
2023/09/20 04:28:03;;;;;;;5.00;2.90;;;11.30;99.90;;;;;;2585990;54;20141;31
2023/09/20 04:30:42;;;;;;;3.70;2.30;;;11.30;99.90;;;;;;2585668;54;20105;31
2023/09/20 04:33:22;;;;;;;5.93;2.42;;;11.20;99.90;;;;;;2604280;46;20042;31
2023/09/20 04:36:00;;;;;;;4.30;2.80;;;11.20;99.90;;;;;;2603991;46;20882;31
2023/09/20 04:38:40;;;;;;;5.18;2.58;;;11.20;99.90;;;;;;2585775;54;21092;31
2023/09/20 04:41:18;;;;;;;3.83;2.20;;;11.20;99.90;;;;;;2585654;54;20048;31
2023/09/20 04:43:55;;;;;;;4.78;1.98;;;11.20;99.90;;;;;;2585907;54;20938;31
2023/09/20 04:46:34;;;;;;;4.13;2.03;;;11.20;99.90;;;;;;2585855;54;20029;31
2023/09/20 04:49:12;;;;;;;5.80;2.00;;;11.20;99.90;;;;;;2604027;47;20986;31
2023/09/20 04:51:51;;;;;;;3.13;1.92;;;11.20;99.90;;;;;;2585619;54;20030;31
2023/09/20 04:54:30;;;;;;;6.15;2.58;;;11.20;99.90;;;;;;2585882;54;20124;31
2023/09/20 04:57:04;;;;;;;6.60;1.88;;;11.20;99.90;;;;;;2604289;47;20920;31
2023/09/20 04:59:40;;;;;;;4.30;2.40;;;11.20;99.90;;;;;;2585846;54;20866;31
2023/09/20 05:02:19;;;;;;;7.57;2.10;;;11.20;99.90;;;;;;2584836;54;20265;31
2023/09/20 05:05:00;;;;;;;3.27;2.03;;;11.30;99.90;;;;;;2584767;54;20030;31
2023/09/20 05:07:40;;;;;;;4.63;2.47;;;11.20;99.90;;;;;;2682923;39;22426;31
2023/09/20 05:10:17;;;;;;;3.45;2.20;;;11.30;99.90;;;;;;2604148;47;20336;31
2023/09/20 05:12:53;;;;;;;5.10;2.45;;;11.40;99.90;;;;;;2600270;47;20133;31
2023/09/20 05:15:31;;;;;;;4.80;2.77;;;11.40;99.90;;;;;;2584903;54;20113;31
2023/09/20 05:18:11;;;;;;;4.90;2.20;;;11.40;99.90;;;;;;2585264;54;21532;31
2023/09/20 05:20:50;;;;;;;3.83;2.03;;;11.40;99.90;;;;;;2585547;54;20053;31
2023/09/20 05:23:30;;;;;;;7.00;2.83;;;11.50;99.90;;;;;;2585664;54;20045;31
2023/09/20 05:26:05;;;;;;;3.80;2.50;;;11.60;99.90;;;;;;2584579;54;20022;31
2023/09/20 05:28:41;;;;;;;3.00;1.90;;;11.60;99.90;;;;;;2585806;54;20942;31
2023/09/20 05:31:16;;;;;;;5.35;2.35;;;11.70;99.90;;;;;;2584854;54;20037;31
2023/09/20 05:33:55;;;;;;;4.20;2.63;;;11.80;99.90;;;;;;2586213;54;20952;31
2023/09/20 05:36:32;;;;;;;5.30;2.65;;;11.90;99.90;;;;;;2592396;46;20068;31
2023/09/20 05:39:13;;;;;;;3.50;2.33;;;12.00;99.90;;;;;;2586786;46;20035;31
2023/09/20 05:41:51;;;;;;;3.45;2.47;;;12.10;99.90;;;;;;2586587;54;20071;31
2023/09/20 05:44:25;;;;;;;8.38;2.58;;;12.40;99.90;;;;;;2586532;54;20857;31
2023/09/20 05:47:03;;;;;;;64.28;10.50;;;12.70;99.90;;;;;;2586243;54;20026;31
2023/09/20 05:49:38;;;;;;;28.03;6.00;;;13.10;99.90;;;;;;2683597;39;22507;31
2023/09/20 05:52:15;;;;;;;5.60;2.40;;;13.60;99.90;;;;;;2586354;54;20269;31
2023/09/20 05:54:53;;;;;;;5.10;2.30;;;14.00;99.90;;;;;;2604759;46;20022;31
2023/09/20 05:57:30;;;;;;;5.50;2.55;;;14.60;99.90;;;;;;2585960;54;21298;31
2023/09/20 06:00:16;;;;;;;5.90;2.10;;;15.10;99.90;;;;;;2586317;54;20990;31
2023/09/20 06:02:54;;;;;;;2.63;1.40;;;15.60;99.90;;;;;;2586139;54;20022;31
2023/09/20 06:05:29;;;;;;;3.03;1.67;;;16.20;99.90;;;;;;2585246;54;21288;31
2023/09/20 06:08:06;;;;;;;5.32;2.03;;;16.70;99.90;;;;;;2601360;46;20937;31
2023/09/20 06:10:49;;;;;;;5.43;1.90;;;17.20;99.90;;;;;;2586383;54;20058;31
2023/09/20 06:13:23;;;;;;;4.15;2.50;;;17.60;99.90;;;;;;2589340;46;20570;31
2023/09/20 06:15:58;;;;;;;3.33;1.73;;;18.00;99.90;;;;;;2604725;46;20035;31
2023/09/20 06:18:35;;;;;;;5.22;1.58;;;18.40;99.90;;;;;;2586465;54;20736;31
2023/09/20 06:21:13;;;;;;;2.43;1.53;;;18.70;99.90;;;;;;2586062;54;20754;31
2023/09/20 06:23:52;;;;;;;4.00;1.83;;;19.10;99.90;;;;;;2585477;54;20065;31
2023/09/20 06:26:31;;;;;;;3.95;1.85;;;19.50;99.90;;;;;;2604685;46;20893;31
2023/09/20 06:29:12;;;;;;;4.45;2.15;;;19.80;99.90;;;;;;2586386;54;20931;31
2023/09/20 06:31:50;;;;;;;2.58;1.30;;;20.10;99.90;;;;;;2586365;54;21011;31
2023/09/20 06:34:26;;;;;;;2.65;1.50;;;20.30;99.90;;;;;;2586261;54;20026;31
2023/09/20 06:37:00;;;;;;;4.82;1.75;;;20.40;99.90;;;;;;2586013;54;20034;31
2023/09/20 06:39:37;;;;;;;4.63;1.03;;;20.60;99.90;;;;;;2586014;54;20128;31
2023/09/20 06:42:15;;;;;;;3.17;1.13;;;20.80;99.90;;;;;;2683172;39;21854;31
2023/09/20 06:44:49;;;;;;;2.58;0.80;;;21.10;99.90;;;;;;2586054;54;20033;31
2023/09/20 06:47:27;;;;;;;1.70;0.90;;;21.30;99.90;;;;;;2604553;46;20036;31
2023/09/20 06:50:05;;;;;;;1.30;0.80;;;21.50;99.90;;;;;;2586354;54;20780;31
2023/09/20 06:52:41;;;;;;;3.77;1.37;;;21.70;99.90;;;;;;2586184;54;20782;31
2023/09/20 06:55:19;;;;;;;3.00;1.30;;;22.00;99.90;;;;;;2604790;46;20979;31
2023/09/20 06:58:03;;;;;;;2.60;1.00;;;22.10;99.90;;;;;;2683452;39;22524;31
2023/09/20 07:00:55;;;;;;;2.08;0.60;;;22.30;99.90;;;;;;2586029;54;20026;31
2023/09/20 07:03:34;;;;;;;2.63;0.70;;;22.40;99.90;;;;;;2586183;54;20033;31
2023/09/20 07:06:08;;;;;;;1.50;0.55;;;22.60;99.90;;;;;;2586233;54;20466;31
2023/09/20 07:08:42;;;;;;;2.20;0.70;;;22.80;99.90;;;;;;2585993;54;21235;31
2023/09/20 07:11:18;;;;;;;;;;;23.00;99.90;;;;;;2586284;54;21569;31
2023/09/20 07:13:59;;;;;;;4.60;0.80;;;23.30;99.90;;;;;;2586198;54;19958;31
2023/09/20 07:16:39;;;;;;;1.85;0.80;;;23.50;99.90;;;;;;2585970;54;20764;31
2023/09/20 07:19:23;;;;;;;1.50;0.70;;;23.70;99.90;;;;;;2585363;54;20030;31
2023/09/20 07:21:57;;;;;;;3.03;1.00;;;24.00;99.90;;;;;;2586118;54;20859;31
2023/09/20 07:24:32;;;;;;;4.17;0.70;;;24.20;99.90;;;;;;2586247;54;20774;31
2023/09/20 07:27:09;;;;;;;2.53;0.95;;;24.40;99.90;;;;;;2586026;54;20030;31
2023/09/20 07:29:51;;;;;;;1.40;0.70;;;24.60;99.90;;;;;;2586255;54;20030;31
2023/09/20 07:32:25;;;;;;;1.85;0.80;;;24.70;99.90;;;;;;2586072;54;20049;31
2023/09/20 07:35:03;;;;;;;3.17;0.70;;;24.90;99.90;;;;;;2586215;54;20030;31
2023/09/20 07:37:39;;;;;;;1.77;0.60;;;25.10;99.90;;;;;;2585330;54;20036;31
2023/09/20 07:40:18;;;;;;;4.95;0.65;;;25.30;99.90;;;;;;2585136;54;21213;31
2023/09/20 07:42:53;;;;;;;1.65;0.60;;;25.50;99.90;;;;;;2585101;54;20978;31
2023/09/20 07:45:38;;;;;;;1.67;0.57;;;25.70;99.90;;;;;;2585153;54;20058;31
2023/09/20 07:48:14;;;;;;;4.07;0.60;;;25.90;99.90;;;;;;2586156;54;20744;31
2023/09/20 07:50:52;;;;;;;3.20;0.80;;;26.00;99.90;;;;;;2585854;54;20050;31
2023/09/20 07:53:28;;;;;;;1.40;0.50;;;26.20;99.90;;;;;;2593228;46;20065;31
2023/09/20 07:56:11;;;;;;;3.50;0.70;;;26.50;99.90;;;;;;2585920;54;20849;31
2023/09/20 07:58:47;;;;;;;2.88;0.68;;;26.50;99.90;;;;;;2585693;54;21097;31
2023/09/20 08:01:29;;;;;;;4.85;0.65;;;26.60;99.90;;;;;;2585953;54;20026;31
2023/09/20 08:04:06;;;;;;;1.73;0.60;;;26.80;99.90;;;;;;2586024;54;21085;31
2023/09/20 08:06:42;;;;;;;1.45;0.50;;;27.00;99.90;;;;;;2604217;46;20827;31
2023/09/20 08:09:16;;;;;;;1.77;0.63;;;27.00;99.90;;;;;;2586151;54;20022;31
2023/09/20 08:11:54;;;;;;;3.55;0.45;;;27.20;99.90;;;;;;2586130;54;20929;31
2023/09/20 08:14:43;;;;;;;2.33;0.50;;;27.20;99.90;;;;;;2585052;54;20844;31
2023/09/20 08:20:11;;;;;;;0.50;0.30;;;27.10;99.90;;;;;;2586023;54;20026;31
2023/09/20 09:02:11;;;;;;;1.98;0.50;;;28.30;96.90;;;;;;2604341;47;20030;31
2023/09/20 09:04:47;;;;;;;2.88;0.57;;;28.50;97.10;;;;;;2586209;54;20037;31
2023/09/20 09:07:29;;;;;;;0.95;0.50;;;28.60;96.80;;;;;;2603853;47;20026;31
2023/09/20 09:10:04;;;;;;;1.35;0.50;;;28.60;96.00;;;;;;2585663;54;20931;31
2023/09/20 09:12:40;;;;;;;1.37;0.60;;;28.80;95.50;;;;;;2585793;54;20043;31
2023/09/20 09:15:17;;;;;;;1.88;0.52;;;28.70;94.20;;;;;;2586701;54;20763;31
2023/09/20 09:17:53;;;;;;;2.17;0.80;;;28.80;96.10;;;;;;2586656;54;20032;31
2023/09/20 09:20:30;;;;;;;1.97;0.70;;;28.60;94.00;;;;;;2585916;54;20899;31
2023/09/20 09:23:16;;;;;;;1.50;0.52;;;28.80;95.00;;;;;;2586526;54;20235;31
2023/09/20 09:25:49;;;;;;;1.47;0.43;;;28.70;94.60;;;;;;2586819;54;20027;31
2023/09/20 09:28:28;;;;;;;1.33;0.50;;;28.70;93.50;;;;;;2586355;54;20246;31
2023/09/20 09:31:06;;;;;;;3.63;0.35;;;28.70;93.30;;;;;;2586358;54;20026;31
2023/09/20 09:33:46;;;;;;;1.90;0.57;;;28.80;92.90;;;;;;2604753;46;20042;31
2023/09/20 09:36:22;;;;;;;1.80;0.40;;;28.80;93.30;;;;;;2586718;54;20057;31
2023/09/20 09:39:14;;;;;;;2.15;0.52;;;28.90;93.40;;;;;;2586526;54;20027;31
2023/09/20 09:42:09;;;;;;;1.50;0.40;;;28.80;92.90;;;;;;2586094;54;20037;31
2023/09/20 09:44:52;;;;;;;2.45;0.60;;;28.90;93.40;;;;;;2586673;54;20031;31
2023/09/20 09:47:29;;;;;;;1.40;0.40;;;29.00;93.10;;;;;;2586506;54;20928;31
2023/09/20 09:50:06;;;;;;;1.30;0.50;;;29.10;92.40;;;;;;2689503;39;22404;31
2023/09/20 09:52:43;;;;;;;1.70;0.55;;;29.00;91.50;;;;;;2586521;54;20048;31
2023/09/20 09:55:21;;;;;;;1.75;0.60;;;29.00;92.00;;;;;;2586386;54;20056;31
2023/09/20 09:58:09;;;;;;;0.75;0.40;;;29.00;93.00;;;;;;2585762;54;20030;31
2023/09/20 10:00:51;;;;;;;2.60;0.70;;;29.00;92.00;;;;;;2586263;54;20786;31
2023/09/20 10:03:32;;;;;;;0.90;0.40;;;29.00;92.10;;;;;;2586656;54;20928;31
2023/09/20 10:06:12;;;;;;;2.00;0.65;;;29.00;93.00;;;;;;2586780;54;20301;31
2023/09/20 10:08:46;;;;;;;1.73;0.60;;;29.10;90.60;;;;;;2586096;54;20050;31
2023/09/20 10:11:24;;;;;;;2.80;0.75;;;29.10;91.40;;;;;;2586449;54;20038;31
2023/09/20 10:14:00;;;;;;;1.23;0.50;;;29.10;90.80;;;;;;2586619;54;20116;31
2023/09/20 10:16:36;;;;;;;0.80;0.50;;;29.00;91.10;;;;;;2595360;46;20843;31
2023/09/20 10:19:15;;;;;;;1.60;0.60;;;29.00;90.40;;;;;;2585334;54;20041;31
2023/09/20 10:22:02;;;;;;;1.33;0.63;;;29.00;89.50;;;;;;2598799;47;20037;31
2023/09/20 10:24:47;;;;;;;1.38;0.47;;;29.00;90.30;;;;;;2602947;46;20405;31
2023/09/20 10:27:24;;;;;;;3.03;0.47;;;28.90;90.60;;;;;;2755105;31;21452;31
2023/09/20 10:30:09;;;;;;;0.90;0.40;;;29.00;90.50;;;;;;2586291;54;20853;31
2023/09/20 10:32:56;;;;;;;1.88;0.68;;;28.90;90.40;;;;;;2604855;46;20034;31
2023/09/20 10:35:36;;;;;;;0.63;0.40;;;28.90;89.70;;;;;;2586494;54;20060;31
2023/09/20 10:38:25;;;;;;;0.90;0.40;;;28.80;88.30;;;;;;2605036;46;20249;31
2023/09/20 10:41:07;;;;;;;1.35;0.60;;;28.80;88.70;;;;;;2586299;54;20374;31
2023/09/20 10:43:59;;;;;;;1.30;0.50;;;28.80;89.00;;;;;;2604670;46;20053;31
2023/09/20 10:46:39;;;;;;;1.00;0.60;;;28.80;91.10;;;;;;2586502;54;20948;31
2023/09/20 10:49:16;;;;;;;1.25;0.40;;;28.70;89.50;;;;;;2585884;54;20057;31
2023/09/20 10:51:54;;;;;;;2.50;0.50;;;28.70;90.40;;;;;;2586427;54;20030;31
2023/09/20 10:54:29;;;;;;;3.42;0.73;;;28.70;89.80;;;;;;2586307;54;20034;31
2023/09/20 10:57:22;;;;;;;1.10;0.50;;;28.60;88.20;;;;;;2586195;54;20481;31
2023/09/20 10:59:58;;;;;;;0.90;0.40;;;28.60;88.80;;;;;;2585961;54;21005;31
2023/09/20 11:02:38;;;;;;;2.08;0.45;;;28.50;88.40;;;;;;2585339;54;20029;31
2023/09/20 11:05:14;;;;;;;0.70;0.30;;;28.40;87.80;;;;;;2604635;46;20821;31
2023/09/20 11:07:50;;;;;;;2.92;0.40;;;28.30;90.10;;;;;;2586297;54;20047;31
2023/09/20 11:10:24;;;;;;;1.60;0.60;;;28.30;90.50;;;;;;2585358;54;20116;31
2023/09/20 11:13:08;;;;;;;1.20;0.35;;;28.30;90.50;;;;;;2604693;46;20985;31
2023/09/20 11:15:51;;;;;;;1.60;0.60;;;28.20;90.80;;;;;;2586503;54;19988;31
2023/09/20 11:18:26;;;;;;;1.17;0.50;;;28.20;89.60;;;;;;2604848;46;20042;31
2023/09/20 11:21:01;;;;;;;2.40;0.50;;;28.20;89.80;;;;;;2683945;39;22376;31
2023/09/20 11:23:38;;;;;;;1.17;0.50;;;28.10;90.20;;;;;;2586207;54;19934;31
2023/09/20 11:26:18;;;;;;;2.43;1.33;;;28.00;89.10;;;;;;2586273;54;20029;31
2023/09/20 11:28:52;;;;;;;1.00;0.60;;;27.90;90.10;;;;;;2586154;54;20800;31
2023/09/20 11:31:35;;;;;;;1.15;0.70;;;27.90;89.30;;;;;;2585757;54;20031;31
2023/09/20 11:34:11;;;;;;;1.35;0.68;;;27.80;90.90;;;;;;2604575;46;21544;31
2023/09/20 11:36:47;;;;;;;1.38;0.63;;;27.70;90.50;;;;;;2586332;54;21049;31
2023/09/20 11:39:32;;;;;;;0.65;0.45;;;27.70;90.40;;;;;;2603544;46;20022;31
2023/09/20 11:45:10;;;;;;;1.05;0.50;;;27.60;91.30;;;;;;2586081;54;20077;31
2023/09/20 11:48:13;;;;;;;1.60;0.50;;;27.50;91.70;;;;;;2586165;54;20030;31
2023/09/20 11:50:50;;;;;;;2.15;0.88;;;27.40;92.00;;;;;;2586289;54;20027;31
2023/09/20 11:53:29;;;;;;;1.85;0.70;;;27.30;91.50;;;;;;2585744;54;20923;31
2023/09/20 11:56:07;;;;;;;1.30;0.60;;;27.30;91.50;;;;;;2585445;54;20736;31
2023/09/20 11:58:46;;;;;;;2.00;0.50;;;27.30;91.50;;;;;;2585479;54;20735;31
2023/09/20 12:01:29;;;;;;;1.50;0.60;;;27.30;91.30;;;;;;2682679;39;21500;31
2023/09/20 12:04:08;;;;;;;1.20;0.60;;;27.40;91.50;;;;;;2682931;39;21631;31
2023/09/20 12:06:42;;;;;;;1.30;0.50;;;27.30;92.00;;;;;;2592446;46;20824;31
2023/09/20 12:09:19;;;;;;;1.63;0.57;;;27.30;93.10;;;;;;2586314;54;21540;31
2023/09/20 12:11:55;;;;;;;1.20;0.50;;;27.20;92.40;;;;;;2604264;46;21007;31
2023/09/20 12:14:37;;;;;;;2.00;0.70;;;27.20;92.20;;;;;;2585321;54;20854;31
2023/09/20 12:17:13;;;;;;;0.75;0.40;;;27.10;93.00;;;;;;2585995;54;20235;31
2023/09/20 12:19:51;;;;;;;2.50;0.45;;;27.00;92.30;;;;;;2585972;54;20093;31
2023/09/20 12:22:30;;;;;;;1.50;0.40;;;27.00;91.80;;;;;;2596801;46;20041;31
2023/09/20 12:25:11;;;;;;;1.33;0.50;;;27.00;91.70;;;;;;2585700;54;20254;31
2023/09/20 12:27:45;;;;;;;1.67;0.60;;;26.90;92.60;;;;;;2586087;54;20567;31
2023/09/20 12:30:19;;;;;;;;;;;26.90;91.60;;;;;;2585478;54;20037;31
2023/09/20 12:32:56;;;;;;;1.10;0.45;;;26.90;92.40;;;;;;2604721;46;19934;31
2023/09/20 12:35:40;;;;;;;1.00;0.50;;;26.80;92.10;;;;;;2585922;54;20922;31
2023/09/20 12:38:17;;;;;;;1.23;0.60;;;26.80;92.40;;;;;;2586042;54;20053;31
2023/09/20 12:40:56;;;;;;;1.70;0.70;;;26.80;91.60;;;;;;2585781;54;20308;31
2023/09/20 12:43:35;;;;;;;1.15;0.50;;;26.80;92.70;;;;;;2604894;47;20030;31
2023/09/20 12:46:12;;;;;;;1.80;0.50;;;26.80;92.70;;;;;;2586780;54;20939;31
2023/09/20 12:48:48;;;;;;;2.90;0.57;;;26.70;92.30;;;;;;2587624;54;20056;31
2023/09/20 12:51:27;;;;;;;0.90;0.50;;;26.70;92.70;;;;;;2587518;54;20026;31
2023/09/20 12:54:06;;;;;;;0.68;0.40;;;26.70;91.50;;;;;;2587609;54;20990;31
2023/09/20 12:56:49;;;;;;;1.45;0.50;;;26.70;91.20;;;;;;2587546;54;21307;31
2023/09/20 12:59:27;;;;;;;1.90;0.50;;;26.70;90.60;;;;;;2587254;54;20030;31
2023/09/20 13:02:02;;;;;;;1.42;0.77;;;26.70;91.90;;;;;;2586930;54;21009;31
2023/09/20 13:04:35;;;;;;;2.50;0.60;;;26.70;91.50;;;;;;2685601;39;20468;31
2023/09/20 13:07:12;;;;;;;1.55;0.60;;;26.70;90.40;;;;;;2685435;39;20451;31
2023/09/20 13:09:51;;;;;;;1.95;0.60;;;26.70;91.60;;;;;;2587533;54;20566;31
2023/09/20 13:12:31;;;;;;;1.00;0.40;;;26.70;91.00;;;;;;2605937;46;20050;31
2023/09/20 13:15:14;;;;;;;1.25;0.70;;;26.70;90.60;;;;;;2606054;46;20049;31
2023/09/20 13:17:51;;;;;;;1.90;0.55;;;26.70;91.10;;;;;;2587473;54;20053;31
2023/09/20 13:20:31;;;;;;;1.10;0.60;;;26.70;92.10;;;;;;2587184;54;20895;31
2023/09/20 13:23:14;;;;;;;2.33;0.70;;;26.70;91.70;;;;;;2587697;54;20890;31
2023/09/20 13:25:48;;;;;;;2.10;0.70;;;26.70;92.30;;;;;;2587490;54;20917;31
2023/09/20 13:28:29;;;;;;;1.70;0.73;;;26.60;91.60;;;;;;2587384;54;20031;31
2023/09/20 13:31:11;;;;;;;1.50;0.77;;;26.60;90.30;;;;;;2684657;39;22255;31
2023/09/20 13:33:48;;;;;;;1.75;0.75;;;26.50;91.00;;;;;;2586681;54;20943;31
2023/09/20 13:36:25;;;;;;;2.05;0.60;;;26.40;90.40;;;;;;2586449;54;20111;31
2023/09/20 13:39:12;;;;;;;1.45;0.50;;;26.40;91.20;;;;;;2587237;54;20033;31
2023/09/20 13:41:48;;;;;;;1.95;0.70;;;26.40;91.10;;;;;;2587459;54;20048;31
2023/09/20 13:44:27;;;;;;;;;;;26.40;90.50;;;;;;2587655;54;20897;31
2023/09/20 13:47:06;;;;;;;1.30;0.70;;;26.30;90.90;;;;;;2586594;54;20635;31
2023/09/20 13:50:00;;;;;;;2.17;0.68;;;26.30;91.10;;;;;;2587219;54;20033;31
2023/09/20 13:52:36;;;;;;;2.05;0.80;;;26.20;91.20;;;;;;2587285;54;20049;31
2023/09/20 13:55:22;;;;;;;2.15;0.50;;;26.10;91.10;;;;;;2586078;54;20759;31
2023/09/20 13:58:08;;;;;;;3.97;0.88;;;26.10;91.30;;;;;;2586309;54;20875;31
2023/09/20 14:00:44;;;;;;;1.65;0.80;;;26.00;92.00;;;;;;2586481;54;20837;31
2023/09/20 14:03:23;;;;;;;2.35;0.80;;;26.00;91.80;;;;;;2585372;54;20061;31
2023/09/20 14:05:57;;;;;;;1.60;0.60;;;26.00;91.80;;;;;;2604942;46;20885;31
2023/09/20 14:08:37;;;;;;;1.90;0.60;;;26.00;91.80;;;;;;2585491;54;20378;31
2023/09/20 14:11:15;;;;;;;2.15;0.60;;;25.90;92.00;;;;;;2586233;54;20030;31
2023/09/20 14:13:56;;;;;;;1.05;0.50;;;25.90;92.30;;;;;;2590612;46;20786;31
2023/09/20 14:16:34;;;;;;;1.60;0.70;;;25.80;92.00;;;;;;2586017;46;20029;31
2023/09/20 14:19:10;;;;;;;1.40;0.60;;;25.80;92.10;;;;;;2586291;54;20078;31
2023/09/20 14:21:57;;;;;;;1.90;0.63;;;25.70;92.60;;;;;;2585308;54;20933;31
2023/09/20 14:24:35;;;;;;;1.40;0.85;;;25.70;92.40;;;;;;2586120;54;21252;31
2023/09/20 14:27:23;;;;;;;2.78;0.85;;;25.70;92.40;;;;;;2586277;54;20957;31
2023/09/20 14:30:00;;;;;;;1.17;0.50;;;25.80;92.60;;;;;;2586235;54;21013;31
2023/09/20 14:32:41;;;;;;;2.65;0.57;;;25.80;92.60;;;;;;2585954;54;20027;31
2023/09/20 14:35:20;;;;;;;3.22;0.77;;;25.80;93.30;;;;;;2587631;46;20112;31
2023/09/20 14:37:58;;;;;;;1.77;0.85;;;25.80;91.70;;;;;;2585296;54;20847;31
2023/09/20 14:40:37;;;;;;;1.40;0.57;;;25.80;91.70;;;;;;2585504;54;20031;31
2023/09/20 14:43:15;;;;;;;1.55;0.65;;;25.80;91.80;;;;;;2586550;54;20669;31